Time;durP1;ratioP1;P1;durP2;ratioP2;P2;SDS_P1;SDS_P2;PMS_P1;PMS_P2;Temp;Humidity;BMP_temperature;BMP_pressure;BME280_temperature;BME280_humidity;BME280_pressure;Samples;Min_cycle;Max_cycle;Signal;HPM_P1;HPM_P2
2020/12/17 00:00:54;;;;;;;3.83;3.37;;;7.60;62.70;;;;;;5046851;28;20216;-55
2020/12/17 00:03:20;;;;;;;3.70;3.40;;;7.60;62.80;;;;;;5046923;28;20214;-53
2020/12/17 00:05:46;;;;;;;3.67;3.37;;;7.60;62.90;;;;;;5046271;28;20730;-57
2020/12/17 00:08:18;;;;;;;4.17;3.50;;;7.60;63.00;;;;;;5048026;28;20225;-53
2020/12/17 00:10:46;;;;;;;9.70;3.60;;;7.60;63.10;;;;;;5046056;28;20312;-50
2020/12/17 00:13:12;;;;;;;3.40;3.10;;;7.60;63.20;;;;;;5046382;28;20237;-55
2020/12/17 00:15:38;;;;;;;3.67;3.37;;;7.70;63.30;;;;;;5045809;28;20257;-57
2020/12/17 00:18:05;;;;;;;4.00;3.70;;;7.70;63.30;;;;;;5047757;28;20968;-55
2020/12/17 00:20:31;;;;;;;3.73;3.27;;;7.70;63.40;;;;;;5046332;28;20213;-53
2020/12/17 00:22:58;;;;;;;3.40;3.10;;;7.80;63.50;;;;;;5063816;22;20609;-64
2020/12/17 00:25:24;;;;;;;3.90;3.60;;;7.80;63.40;;;;;;5074917;28;20247;-64
2020/12/17 00:27:51;;;;;;;4.03;3.73;;;7.90;63.30;;;;;;5076737;28;20205;-63
2020/12/17 00:30:19;;;;;;;4.40;4.00;;;7.90;63.10;;;;;;5079530;28;20266;-63
2020/12/17 00:32:46;;;;;;;4.17;3.87;;;7.90;62.80;;;;;;5077655;28;20209;-62
2020/12/17 00:35:15;;;;;;;4.17;3.87;;;8.00;62.70;;;;;;5076696;28;20620;-63
2020/12/17 00:37:41;;;;;;;3.97;3.67;;;8.00;62.50;;;;;;5077195;28;20205;-61
2020/12/17 00:40:11;;;;;;;4.20;3.90;;;8.00;62.30;;;;;;5075533;28;20608;-63
2020/12/17 00:42:39;;;;;;;3.97;3.67;;;8.00;62.30;;;;;;5076874;28;20201;-62
2020/12/17 00:45:07;;;;;;;4.30;3.90;;;7.90;62.30;;;;;;5074496;28;20701;-60
2020/12/17 00:47:33;;;;;;;3.67;3.37;;;7.90;62.30;;;;;;5077740;28;20208;-63
2020/12/17 00:50:00;;;;;;;3.80;3.50;;;7.80;62.40;;;;;;5077910;28;20274;-62
2020/12/17 00:52:27;;;;;;;4.60;4.20;;;7.90;62.50;;;;;;5076751;28;20545;-63
2020/12/17 00:54:53;;;;;;;3.83;3.53;;;7.80;62.30;;;;;;5077615;28;20228;-64
2020/12/17 00:57:26;;;;;;;3.93;3.57;;;7.80;62.20;;;;;;5082189;28;20265;-63
2020/12/17 00:59:53;;;;;;;3.60;3.40;;;7.80;62.50;;;;;;5082951;28;21370;-62
2020/12/17 01:02:21;;;;;;;3.77;3.47;;;7.80;62.40;;;;;;5081544;28;20217;-62
2020/12/17 01:04:48;;;;;;;3.73;3.43;;;7.80;62.50;;;;;;5073065;28;20236;-62
2020/12/17 01:07:15;;;;;;;3.93;3.63;;;7.80;62.50;;;;;;5081119;28;20201;-61
2020/12/17 01:09:41;;;;;;;5.03;3.67;;;7.80;62.50;;;;;;5080082;28;20241;-59
2020/12/17 01:12:09;;;;;;;3.40;3.20;;;7.80;62.50;;;;;;5080287;28;20209;-61
2020/12/17 01:14:36;;;;;;;3.73;3.47;;;7.70;62.40;;;;;;5081671;28;20233;-63
2020/12/17 01:17:05;;;;;;;3.97;3.57;;;7.70;62.40;;;;;;5079961;28;20204;-63
2020/12/17 01:19:33;;;;;;;3.27;3.07;;;7.80;62.40;;;;;;5081549;28;20201;-62
2020/12/17 01:22:00;;;;;;;3.57;3.27;;;7.70;62.40;;;;;;5076505;28;20201;-63
2020/12/17 01:24:27;;;;;;;3.87;3.57;;;7.70;62.30;;;;;;5079955;28;20240;-61
2020/12/17 01:26:54;;;;;;;3.67;3.37;;;7.70;62.20;;;;;;5079353;28;20212;-62
2020/12/17 01:29:21;;;;;;;5.03;3.43;;;7.70;62.20;;;;;;5080351;28;20235;-63
2020/12/17 01:31:47;;;;;;;3.27;3.07;;;7.70;62.20;;;;;;5079086;28;20211;-63
2020/12/17 01:34:14;;;;;;;3.93;3.33;;;7.70;62.10;;;;;;5078729;28;20225;-62
2020/12/17 01:36:41;;;;;;;3.40;3.10;;;7.60;62.10;;;;;;5080548;28;20212;-62
2020/12/17 01:39:07;;;;;;;3.30;3.00;;;7.60;62.10;;;;;;5079480;28;20649;-62
2020/12/17 01:41:34;;;;;;;3.43;3.17;;;7.60;62.30;;;;;;5079247;28;20432;-63
2020/12/17 01:44:02;;;;;;;3.53;3.27;;;7.60;62.60;;;;;;5078308;28;20224;-63
2020/12/17 01:46:30;;;;;;;3.30;3.10;;;7.50;62.70;;;;;;5079253;28;20224;-62
2020/12/17 01:49:00;;;;;;;2.80;2.60;;;7.60;63.00;;;;;;5080033;28;20221;-63
2020/12/17 01:51:26;;;;;;;4.57;3.60;;;7.60;63.10;;;;;;5078761;28;20216;-62
2020/12/17 01:53:55;;;;;;;3.27;3.07;;;7.60;63.10;;;;;;5079208;28;20247;-64
2020/12/17 01:56:24;;;;;;;3.43;3.23;;;7.60;63.10;;;;;;5079190;28;20200;-63
2020/12/17 01:59:00;;;;;;;3.13;2.93;;;7.70;63.10;;;;;;5079767;28;20208;-63
2020/12/17 02:01:32;;;;;;;3.63;3.33;;;7.70;63.00;;;;;;5079282;28;20528;-62
2020/12/17 02:03:59;;;;;;;3.73;3.43;;;7.70;62.90;;;;;;5079914;28;20221;-62
2020/12/17 02:06:25;;;;;;;3.57;3.27;;;7.70;62.70;;;;;;5080573;28;20211;-63
2020/12/17 02:08:53;;;;;;;4.00;3.60;;;7.70;62.60;;;;;;5080107;28;20208;-63
2020/12/17 02:11:21;;;;;;;3.60;3.30;;;7.70;62.60;;;;;;5077332;28;20215;-63
2020/12/17 02:13:48;;;;;;;3.30;3.10;;;7.70;62.30;;;;;;5079047;28;20240;-61
2020/12/17 02:16:16;;;;;;;3.33;3.13;;;7.70;62.40;;;;;;5079291;28;20712;-62
2020/12/17 02:18:42;;;;;;;2.87;2.67;;;7.70;62.50;;;;;;5078236;28;20220;-62
2020/12/17 02:21:10;;;;;;;3.33;3.13;;;7.70;62.70;;;;;;5077892;28;20696;-62
2020/12/17 02:23:38;;;;;;;3.40;3.10;;;7.70;62.70;;;;;;5079785;28;20257;-62
2020/12/17 02:26:05;;;;;;;3.57;2.90;;;7.70;62.80;;;;;;5077982;28;20649;-61
2020/12/17 02:28:33;;;;;;;3.13;2.90;;;7.70;62.80;;;;;;5079388;28;20654;-63
2020/12/17 02:30:59;;;;;;;3.60;3.40;;;7.70;62.60;;;;;;5077526;28;20266;-64
2020/12/17 02:33:26;;;;;;;3.53;3.27;;;7.80;62.40;;;;;;5077546;28;20228;-61
2020/12/17 02:35:52;;;;;;;3.50;3.20;;;7.80;62.20;;;;;;5078968;28;20651;-60
2020/12/17 02:38:19;;;;;;;3.23;3.03;;;7.80;62.00;;;;;;5073563;28;20560;-62
2020/12/17 02:40:45;;;;;;;3.30;3.10;;;7.70;61.80;;;;;;5077651;28;20208;-62
2020/12/17 02:43:13;;;;;;;3.10;2.80;;;7.70;62.00;;;;;;5077118;28;20228;-62
2020/12/17 02:45:44;;;;;;;2.87;2.67;;;7.70;62.10;;;;;;5077584;28;20208;-62
2020/12/17 02:48:11;;;;;;;3.20;2.90;;;7.60;62.10;;;;;;5078503;28;20212;-63
2020/12/17 02:50:40;;;;;;;2.60;2.40;;;7.60;62.30;;;;;;5078709;28;20721;-62
2020/12/17 02:53:07;;;;;;;2.90;2.70;;;7.50;62.40;;;;;;5077146;28;20232;-62
2020/12/17 02:55:34;;;;;;;2.67;2.47;;;7.50;62.40;;;;;;5078894;28;20290;-62
2020/12/17 02:58:00;;;;;;;2.70;2.50;;;7.50;62.20;;;;;;5078027;28;20196;-63
2020/12/17 03:00:28;;;;;;;2.60;2.40;;;7.50;62.10;;;;;;5078779;28;20213;-62
2020/12/17 03:02:54;;;;;;;2.83;2.63;;;7.50;62.20;;;;;;5079277;28;20228;-63
2020/12/17 03:05:20;;;;;;;2.83;2.63;;;7.50;62.30;;;;;;5078666;28;20285;-62
2020/12/17 03:07:47;;;;;;;3.67;2.80;;;7.40;62.40;;;;;;5077945;28;20219;-62
2020/12/17 03:10:13;;;;;;;2.70;2.50;;;7.40;62.60;;;;;;5074938;28;20324;-63
2020/12/17 03:12:41;;;;;;;2.97;2.77;;;7.40;62.70;;;;;;5077288;28;20213;-63
2020/12/17 03:15:09;;;;;;;2.70;2.50;;;7.40;62.90;;;;;;5078552;28;20227;-63
2020/12/17 03:17:37;;;;;;;2.57;2.40;;;7.50;62.90;;;;;;5077309;28;20715;-63
2020/12/17 03:20:04;;;;;;;3.10;2.90;;;7.50;62.90;;;;;;5078343;28;20201;-63
2020/12/17 03:22:31;;;;;;;2.90;2.70;;;7.50;62.80;;;;;;5077991;28;20725;-63
2020/12/17 03:24:57;;;;;;;3.37;2.97;;;7.50;62.60;;;;;;5076824;28;20244;-62
2020/12/17 03:27:24;;;;;;;3.03;2.83;;;7.50;62.50;;;;;;5076417;28;20254;-62
2020/12/17 03:29:50;;;;;;;3.00;2.80;;;7.50;62.40;;;;;;5078249;28;20225;-63
2020/12/17 03:32:16;;;;;;;2.97;2.67;;;7.50;62.30;;;;;;5077089;28;20219;-63
2020/12/17 03:34:44;;;;;;;3.20;2.90;;;7.50;62.40;;;;;;5077614;28;20235;-63
2020/12/17 03:37:10;;;;;;;2.80;2.60;;;7.50;62.50;;;;;;5077287;28;20217;-63
2020/12/17 03:39:37;;;;;;;2.97;2.77;;;7.40;62.50;;;;;;5078891;28;20204;-61
2020/12/17 03:42:05;;;;;;;3.10;2.90;;;7.40;62.70;;;;;;5077682;28;20205;-63
2020/12/17 03:44:31;;;;;;;2.73;2.53;;;7.50;62.90;;;;;;5077406;28;20224;-63
2020/12/17 03:46:58;;;;;;;3.10;2.90;;;7.50;62.90;;;;;;5076664;28;20250;-63
2020/12/17 03:49:24;;;;;;;3.07;2.80;;;7.40;62.80;;;;;;5076697;28;20572;-63
2020/12/17 03:51:51;;;;;;;2.90;2.70;;;7.50;63.00;;;;;;5077444;28;20204;-62
2020/12/17 03:54:18;;;;;;;3.33;2.80;;;7.50;62.80;;;;;;5077065;28;20228;-63
2020/12/17 03:56:44;;;;;;;3.40;2.80;;;7.50;62.70;;;;;;5076489;28;20212;-63
2020/12/17 03:59:11;;;;;;;3.00;2.80;;;7.50;62.60;;;;;;5076163;28;20749;-62
2020/12/17 04:01:37;;;;;;;2.73;2.53;;;7.50;62.40;;;;;;5076991;28;20223;-62
2020/12/17 04:04:04;;;;;;;2.80;2.60;;;7.50;62.40;;;;;;5077712;28;20708;-62
2020/12/17 04:06:30;;;;;;;3.87;3.00;;;7.40;62.40;;;;;;5078508;28;20205;-63
2020/12/17 04:08:57;;;;;;;2.77;2.57;;;7.40;62.40;;;;;;5077204;28;20694;-63
2020/12/17 04:11:24;;;;;;;2.97;2.70;;;7.40;62.60;;;;;;5075790;28;20204;-63
2020/12/17 04:13:50;;;;;;;2.70;2.50;;;7.40;62.80;;;;;;5077163;28;20306;-63
2020/12/17 04:16:17;;;;;;;3.00;2.80;;;7.40;63.00;;;;;;5078116;28;20327;-63
2020/12/17 04:18:43;;;;;;;3.10;2.90;;;7.40;63.00;;;;;;5077221;28;20204;-63
2020/12/17 04:21:10;;;;;;;3.30;2.70;;;7.40;63.00;;;;;;5076899;28;20622;-62
2020/12/17 04:23:36;;;;;;;3.10;2.90;;;7.40;63.00;;;;;;5076424;28;20617;-62
2020/12/17 04:26:03;;;;;;;2.97;2.77;;;7.40;62.90;;;;;;5076525;28;20212;-63
2020/12/17 04:28:30;;;;;;;2.63;2.43;;;7.40;62.90;;;;;;5076749;28;20225;-62
2020/12/17 04:30:57;;;;;;;2.83;2.63;;;7.40;63.00;;;;;;5077494;28;20275;-63
2020/12/17 04:33:23;;;;;;;2.67;2.50;;;7.40;63.10;;;;;;5080277;28;20237;-62
2020/12/17 04:35:50;;;;;;;2.87;2.67;;;7.50;63.20;;;;;;5080287;28;20224;-61
2020/12/17 04:38:17;;;;;;;3.07;2.87;;;7.50;63.20;;;;;;5079436;28;20217;-62
2020/12/17 04:40:43;;;;;;;2.70;2.50;;;7.50;63.00;;;;;;5078813;28;20209;-62
2020/12/17 04:43:10;;;;;;;2.83;2.63;;;7.50;63.00;;;;;;5081062;28;20658;-63
2020/12/17 04:45:40;;;;;;;3.00;2.80;;;7.50;63.10;;;;;;5083114;28;20204;-63
2020/12/17 04:48:08;;;;;;;3.03;2.83;;;7.60;63.10;;;;;;5080438;28;20208;-63
2020/12/17 04:50:35;;;;;;;2.87;2.67;;;7.60;63.00;;;;;;5081020;28;20225;-62
2020/12/17 04:53:04;;;;;;;3.10;2.87;;;7.60;62.90;;;;;;5080203;28;20291;-60
2020/12/17 04:55:31;;;;;;;3.00;2.80;;;7.70;63.00;;;;;;5081378;28;20216;-61
2020/12/17 04:57:59;;;;;;;2.80;2.60;;;7.60;63.00;;;;;;5079793;28;20208;-62
2020/12/17 05:00:27;;;;;;;2.67;2.50;;;7.70;63.00;;;;;;5080626;28;20220;-62
2020/12/17 05:02:57;;;;;;;3.07;2.87;;;7.70;63.00;;;;;;5081861;28;20243;-62
2020/12/17 05:05:24;;;;;;;2.90;2.70;;;7.70;63.00;;;;;;5080932;28;20728;-63
2020/12/17 05:07:50;;;;;;;2.80;2.60;;;7.70;62.80;;;;;;5080701;28;20208;-62
2020/12/17 05:10:17;;;;;;;3.07;2.87;;;7.80;62.60;;;;;;5077495;28;20224;-63
2020/12/17 05:12:43;;;;;;;2.80;2.60;;;7.80;62.30;;;;;;5080617;28;20294;-63
2020/12/17 05:15:10;;;;;;;2.83;2.63;;;7.80;62.10;;;;;;5080849;28;21088;-62
2020/12/17 05:17:38;;;;;;;3.00;2.80;;;7.70;62.10;;;;;;5080917;28;20243;-62
2020/12/17 05:20:07;;;;;;;3.87;3.00;;;7.70;62.90;;;;;;5080705;28;20205;-63
2020/12/17 05:22:34;;;;;;;3.60;3.30;;;7.60;62.30;;;;;;5080720;28;20349;-63
2020/12/17 05:25:01;;;;;;;2.90;2.70;;;7.60;62.20;;;;;;5078728;28;20240;-63
2020/12/17 05:27:28;;;;;;;3.03;2.73;;;7.60;62.10;;;;;;5077968;28;21079;-63
2020/12/17 05:29:57;;;;;;;3.33;2.93;;;7.60;62.30;;;;;;5080507;28;20220;-63
2020/12/17 05:32:23;;;;;;;3.03;2.83;;;7.50;62.40;;;;;;5079054;28;20303;-63
2020/12/17 05:34:51;;;;;;;3.00;2.80;;;7.50;62.60;;;;;;5081936;28;20225;-62
2020/12/17 05:37:22;;;;;;;3.17;2.77;;;7.50;62.70;;;;;;5078593;28;20588;-63
2020/12/17 05:39:49;;;;;;;3.13;2.93;;;7.50;62.70;;;;;;5081303;28;20308;-62
2020/12/17 05:42:16;;;;;;;3.07;2.73;;;7.60;62.80;;;;;;5079161;28;20294;-62
2020/12/17 05:44:42;;;;;;;2.60;2.40;;;7.60;62.60;;;;;;5080358;28;20739;-63
2020/12/17 05:47:13;;;;;;;2.97;2.77;;;7.60;62.50;;;;;;5080565;28;20346;-62
2020/12/17 05:49:40;;;;;;;2.73;2.53;;;7.60;62.30;;;;;;5079470;28;20878;-63
2020/12/17 05:52:14;;;;;;;2.47;2.27;;;7.50;62.00;;;;;;5078183;28;20222;-63
2020/12/17 05:54:58;;;;;;;3.03;2.40;;;7.50;62.00;;;;;;5079683;28;20223;-63
2020/12/17 05:57:25;;;;;;;2.97;2.67;;;7.50;62.00;;;;;;5080167;28;20220;-63
2020/12/17 05:59:56;;;;;;;3.00;2.80;;;7.50;62.20;;;;;;5078226;28;20209;-61
2020/12/17 06:02:25;;;;;;;2.77;2.57;;;7.50;62.30;;;;;;5078645;28;20201;-62
2020/12/17 06:05:05;;;;;;;3.10;2.90;;;7.50;62.30;;;;;;5078574;28;20221;-62
2020/12/17 06:07:48;;;;;;;2.63;2.43;;;7.50;62.40;;;;;;5081007;28;20200;-62
2020/12/17 06:10:21;;;;;;;2.57;2.33;;;7.50;62.40;;;;;;5080865;28;20224;-62
2020/12/17 06:12:49;;;;;;;2.80;2.60;;;7.50;62.50;;;;;;5080743;28;20670;-62
2020/12/17 06:15:19;;;;;;;3.10;2.90;;;7.50;62.50;;;;;;5078900;28;20204;-63
2020/12/17 06:17:52;;;;;;;3.00;2.80;;;7.60;62.50;;;;;;5079757;28;20227;-61
2020/12/17 06:20:20;;;;;;;3.10;2.90;;;7.60;62.40;;;;;;5078568;28;20197;-62
2020/12/17 06:22:57;;;;;;;3.40;3.10;;;7.60;62.30;;;;;;5079093;28;20288;-63
2020/12/17 06:25:26;;;;;;;3.10;2.90;;;7.60;62.20;;;;;;5131589;22;20414;-58
2020/12/17 06:27:53;;;;;;;2.67;2.47;;;7.60;62.10;;;;;;5116455;27;20632;-59
2020/12/17 06:30:23;;;;;;;2.93;2.73;;;7.60;62.00;;;;;;5116886;27;20226;-57
2020/12/17 06:32:50;;;;;;;2.97;2.77;;;7.60;62.00;;;;;;5120994;27;20221;-59
2020/12/17 06:35:49;;;;;;;3.03;2.83;;;7.50;61.90;;;;;;5115804;27;20227;-55
2020/12/17 06:38:20;;;;;;;2.93;2.70;;;7.50;61.80;;;;;;5113093;27;20953;-59
2020/12/17 06:40:47;;;;;;;3.23;3.00;;;7.50;61.90;;;;;;5118189;27;20202;-60
2020/12/17 06:43:30;;;;;;;2.90;2.70;;;7.50;62.00;;;;;;5119880;27;20200;-59
2020/12/17 06:45:57;;;;;;;3.00;2.80;;;7.50;61.90;;;;;;5112931;27;20199;-59
2020/12/17 06:48:32;;;;;;;3.93;2.90;;;7.50;61.80;;;;;;5117688;27;20211;-56
2020/12/17 06:51:01;;;;;;;3.00;2.80;;;7.40;61.60;;;;;;5112348;27;20262;-60
2020/12/17 06:53:39;;;;;;;2.63;2.43;;;7.40;61.60;;;;;;5113308;27;20207;-58
2020/12/17 06:56:07;;;;;;;2.80;2.60;;;7.30;61.80;;;;;;5115642;27;20200;-60
2020/12/17 06:58:33;;;;;;;3.70;3.40;;;7.30;61.90;;;;;;5118468;27;20657;-59
2020/12/17 07:00:59;;;;;;;3.00;2.80;;;7.30;61.90;;;;;;5116074;27;20200;-59
2020/12/17 07:03:44;;;;;;;2.77;2.57;;;7.20;61.90;;;;;;5113483;27;20202;-58
2020/12/17 07:06:16;;;;;;;2.40;2.20;;;7.20;62.00;;;;;;5117231;27;20218;-60
2020/12/17 07:08:45;;;;;;;2.80;2.60;;;7.20;62.10;;;;;;5114275;27;20252;-59
2020/12/17 07:11:37;;;;;;;2.50;2.30;;;7.20;62.10;;;;;;5115651;27;20604;-60
2020/12/17 07:14:06;;;;;;;2.60;2.40;;;7.20;62.10;;;;;;5117434;27;20234;-59
2020/12/17 07:16:33;;;;;;;2.57;2.37;;;7.20;62.10;;;;;;5116153;27;20687;-60
2020/12/17 07:19:26;;;;;;;2.73;2.53;;;7.20;62.20;;;;;;5114950;27;20196;-60
2020/12/17 07:21:59;;;;;;;3.47;3.17;;;7.30;62.20;;;;;;5113688;27;20211;-59
2020/12/17 07:24:30;;;;;;;3.37;2.97;;;7.30;62.20;;;;;;5116166;27;20650;-60
2020/12/17 07:27:03;;;;;;;5.03;3.17;;;7.30;62.10;;;;;;5114928;27;20213;-59
2020/12/17 07:29:47;;;;;;;3.63;2.57;;;7.30;62.00;;;;;;5112241;27;20723;-62
2020/12/17 07:32:44;;;;;;;6.93;2.80;;;7.30;62.10;;;;;;5103892;27;20200;-61
2020/12/17 07:35:23;;;;;;;3.30;2.77;;;7.30;62.20;;;;;;5111046;27;20230;-59
2020/12/17 07:37:55;;;;;;;2.57;2.37;;;7.40;62.20;;;;;;5113400;27;20212;-60
2020/12/17 07:40:30;;;;;;;3.17;2.97;;;7.40;62.20;;;;;;5113945;27;20230;-59
2020/12/17 07:43:03;;;;;;;2.43;2.23;;;7.50;62.20;;;;;;5113342;27;20694;-59
2020/12/17 07:45:47;;;;;;;2.90;2.70;;;7.50;62.20;;;;;;5114441;27;20222;-62
2020/12/17 07:48:41;;;;;;;2.67;2.47;;;7.60;62.10;;;;;;5118013;27;20549;-62
2020/12/17 07:51:33;;;;;;;3.30;3.00;;;7.60;61.90;;;;;;5115453;27;20226;-61
2020/12/17 07:54:05;;;;;;;3.00;2.80;;;7.70;61.80;;;;;;5115470;27;20234;-60
2020/12/17 07:56:33;;;;;;;2.93;2.57;;;7.70;61.80;;;;;;5118156;27;20255;-61
2020/12/17 07:59:04;;;;;;;3.30;3.00;;;7.80;61.90;;;;;;5117353;27;20227;-61
2020/12/17 08:01:31;;;;;;;3.00;2.70;;;7.90;62.00;;;;;;5116080;27;20269;-58
2020/12/17 08:03:58;;;;;;;3.83;3.53;;;8.00;62.00;;;;;;5115857;28;20237;-60
2020/12/17 08:06:25;;;;;;;3.33;3.10;;;8.10;61.80;;;;;;5114892;27;20203;-61
2020/12/17 08:08:57;;;;;;;3.47;3.17;;;8.10;61.60;;;;;;5115238;28;20210;-61
2020/12/17 08:11:25;;;;;;;3.77;3.47;;;8.20;61.40;;;;;;5114953;28;20219;-57
2020/12/17 08:14:04;;;;;;;4.43;3.40;;;8.30;61.40;;;;;;5115474;28;20273;-60
2020/12/17 08:16:32;;;;;;;3.60;3.30;;;8.40;61.20;;;;;;5117445;28;20299;-60
2020/12/17 08:19:01;;;;;;;3.70;3.40;;;8.50;61.30;;;;;;5114131;28;20203;-59
2020/12/17 08:21:29;;;;;;;3.57;3.27;;;8.60;61.20;;;;;;5115241;28;20199;-56
2020/12/17 08:23:56;;;;;;;3.43;3.17;;;8.70;61.00;;;;;;5116496;28;20227;-57
2020/12/17 08:26:26;;;;;;;3.63;3.33;;;8.80;60.70;;;;;;5116370;28;20208;-59
2020/12/17 08:28:53;;;;;;;3.77;3.30;;;8.90;60.50;;;;;;5114709;28;20214;-61
2020/12/17 08:31:23;;;;;;;3.57;3.27;;;8.90;60.30;;;;;;5111257;28;20227;-60
2020/12/17 08:33:53;;;;;;;2.97;2.77;;;9.00;60.00;;;;;;5115616;28;20227;-62
2020/12/17 08:36:22;;;;;;;3.47;3.20;;;9.10;60.00;;;;;;5116497;28;20252;-62
2020/12/17 08:38:58;;;;;;;4.33;3.30;;;9.10;59.80;;;;;;5114205;28;20257;-61
2020/12/17 08:41:29;;;;;;;3.47;3.07;;;9.20;59.70;;;;;;5113533;28;20943;-59
2020/12/17 08:44:01;;;;;;;3.30;3.10;;;9.30;59.80;;;;;;5112737;28;20220;-63
2020/12/17 08:46:34;;;;;;;6.57;3.27;;;9.40;59.70;;;;;;5113471;28;20207;-62
2020/12/17 08:49:06;;;;;;;3.13;2.93;;;9.40;59.40;;;;;;5115720;28;20252;-63
2020/12/17 08:51:35;;;;;;;3.57;3.27;;;9.60;59.50;;;;;;5114677;28;20253;-63
2020/12/17 08:54:01;;;;;;;3.33;3.03;;;9.60;59.30;;;;;;5116552;28;20701;-61
2020/12/17 08:56:28;;;;;;;3.53;3.23;;;9.70;59.30;;;;;;5117649;28;20256;-63
2020/12/17 08:59:00;;;;;;;3.10;2.90;;;9.80;59.20;;;;;;5114450;28;20208;-62
2020/12/17 09:01:31;;;;;;;3.00;2.67;;;9.80;59.00;;;;;;5111940;28;20281;-62
2020/12/17 09:03:58;;;;;;;2.97;2.77;;;9.90;59.50;;;;;;5110754;28;20215;-63
2020/12/17 09:06:30;;;;;;;3.87;3.33;;;10.00;58.80;;;;;;5109580;28;20207;-63
2020/12/17 09:09:12;;;;;;;3.07;2.83;;;10.10;58.70;;;;;;5115025;28;20203;-62
2020/12/17 09:11:40;;;;;;;2.97;2.77;;;10.20;58.30;;;;;;5109467;28;20695;-62
2020/12/17 09:14:08;;;;;;;3.37;3.07;;;10.30;58.70;;;;;;5112313;28;20227;-61
2020/12/17 09:16:37;;;;;;;3.27;3.00;;;10.40;58.60;;;;;;5115611;27;21140;-61
2020/12/17 09:19:08;;;;;;;3.17;2.97;;;10.50;58.40;;;;;;5115136;27;20196;-61
2020/12/17 09:21:37;;;;;;;4.00;3.03;;;10.60;58.30;;;;;;5116398;27;20199;-60
2020/12/17 09:24:04;;;;;;;3.40;3.10;;;10.70;58.30;;;;;;5118301;27;20727;-61
2020/12/17 09:26:33;;;;;;;3.23;2.90;;;10.80;58.30;;;;;;5121656;27;20211;-61
2020/12/17 09:29:03;;;;;;;3.53;2.97;;;11.00;58.10;;;;;;5114626;27;20223;-61
2020/12/17 09:31:36;;;;;;;3.17;2.97;;;11.10;58.00;;;;;;5112237;27;20234;-61
2020/12/17 09:34:08;;;;;;;3.83;2.90;;;11.40;58.10;;;;;;5119428;27;21146;-63
2020/12/17 09:36:37;;;;;;;3.63;2.97;;;11.50;58.30;;;;;;5117774;27;20272;-63
2020/12/17 09:39:08;;;;;;;3.77;3.00;;;11.90;58.50;;;;;;5118028;27;20210;-61
2020/12/17 09:41:35;;;;;;;3.13;2.67;;;12.20;58.50;;;;;;5112447;27;20797;-62
2020/12/17 09:44:03;;;;;;;2.80;2.60;;;12.60;58.00;;;;;;5116769;27;20227;-63
2020/12/17 09:46:44;;;;;;;2.90;2.70;;;13.00;57.50;;;;;;5118514;27;20206;-63
2020/12/17 09:49:31;;;;;;;2.97;2.77;;;13.40;56.60;;;;;;5108531;27;20202;-59
2020/12/17 09:52:08;;;;;;;2.60;2.40;;;13.80;56.70;;;;;;5114315;27;20214;-58
2020/12/17 09:54:39;;;;;;;2.90;2.70;;;14.10;56.00;;;;;;5113837;27;20229;-61
2020/12/17 09:57:10;;;;;;;2.87;2.57;;;14.50;55.40;;;;;;5114662;27;20211;-59
2020/12/17 09:59:37;;;;;;;2.50;2.30;;;14.70;54.90;;;;;;5111468;27;20691;-61
2020/12/17 10:02:08;;;;;;;2.90;2.40;;;14.90;54.50;;;;;;5113530;27;20200;-59
2020/12/17 10:04:35;;;;;;;2.30;2.10;;;15.00;54.00;;;;;;5112121;27;20224;-59
2020/12/17 10:07:02;;;;;;;3.30;2.30;;;15.10;54.10;;;;;;5115319;27;20200;-58
2020/12/17 10:09:29;;;;;;;2.20;2.10;;;15.30;54.30;;;;;;5114937;27;21014;-58
2020/12/17 10:11:57;;;;;;;2.13;2.03;;;15.50;54.50;;;;;;5114288;27;20764;-63
2020/12/17 10:14:27;;;;;;;2.13;1.97;;;15.80;54.90;;;;;;5116022;27;20318;-58
2020/12/17 10:16:58;;;;;;;2.30;1.90;;;16.30;55.20;;;;;;5113129;27;20263;-59
2020/12/17 10:19:28;;;;;;;2.37;1.70;;;16.80;55.10;;;;;;5113447;27;20211;-55
2020/12/17 10:21:54;;;;;;;1.90;1.63;;;17.40;55.20;;;;;;5114353;27;20211;-60
2020/12/17 10:24:21;;;;;;;1.57;1.47;;;18.00;55.10;;;;;;5113275;27;20239;-59
2020/12/17 10:26:47;;;;;;;1.60;1.50;;;18.70;54.90;;;;;;5109972;27;20226;-58
2020/12/17 10:29:14;;;;;;;2.33;1.77;;;19.30;54.50;;;;;;5113684;27;20203;-61
2020/12/17 10:31:40;;;;;;;1.80;1.70;;;19.90;53.90;;;;;;5108590;27;20227;-63
2020/12/17 10:34:07;;;;;;;1.63;1.50;;;20.50;53.40;;;;;;5116317;27;20300;-59
2020/12/17 10:36:39;;;;;;;1.90;1.73;;;21.00;52.90;;;;;;5115004;27;20208;-59
2020/12/17 10:39:07;;;;;;;1.73;1.63;;;21.50;51.70;;;;;;5114821;27;20204;-60
2020/12/17 10:41:36;;;;;;;2.10;1.90;;;22.00;51.70;;;;;;5112975;27;20208;-61
2020/12/17 10:44:03;;;;;;;2.27;1.87;;;22.40;51.00;;;;;;5114758;27;20820;-59
2020/12/17 10:46:29;;;;;;;2.57;2.37;;;22.80;50.00;;;;;;5114814;27;20430;-59
2020/12/17 10:48:56;;;;;;;2.07;1.70;;;22.90;48.70;;;;;;5114718;27;20415;-62
2020/12/17 10:51:22;;;;;;;3.63;1.83;;;22.90;47.90;;;;;;5112922;27;20233;-60
2020/12/17 10:53:49;;;;;;;3.00;1.93;;;22.80;47.80;;;;;;5115117;27;20223;-58
2020/12/17 10:56:16;;;;;;;4.27;2.17;;;22.70;47.80;;;;;;5110355;27;20208;-60
2020/12/17 10:58:43;;;;;;;2.23;2.00;;;22.60;48.00;;;;;;5114695;27;20205;-62
2020/12/17 11:01:09;;;;;;;2.87;2.30;;;22.60;48.00;;;;;;5112201;27;20202;-58
2020/12/17 11:03:36;;;;;;;1.97;1.87;;;22.70;48.10;;;;;;5113712;27;20238;-60
2020/12/17 11:06:03;;;;;;;4.40;2.17;;;22.80;48.00;;;;;;5109710;27;20567;-61
2020/12/17 11:08:29;;;;;;;2.30;2.10;;;22.90;48.10;;;;;;5112342;27;20203;-63
2020/12/17 11:10:57;;;;;;;2.27;2.07;;;23.10;47.80;;;;;;5111806;27;20231;-61
2020/12/17 11:13:24;;;;;;;3.00;2.10;;;23.20;47.30;;;;;;5111350;27;20211;-60
2020/12/17 11:15:50;;;;;;;2.37;2.17;;;23.30;47.30;;;;;;5105785;27;20244;-62
2020/12/17 11:18:17;;;;;;;2.87;2.40;;;23.40;47.00;;;;;;5107571;27;21167;-62
2020/12/17 11:20:44;;;;;;;3.13;2.33;;;23.50;46.80;;;;;;5110203;27;20211;-62
2020/12/17 11:23:11;;;;;;;3.97;2.50;;;23.50;46.50;;;;;;5109192;27;20342;-64
2020/12/17 11:25:39;;;;;;;2.27;2.07;;;23.60;46.30;;;;;;5108536;27;20597;-62
2020/12/17 11:28:07;;;;;;;2.67;2.47;;;23.60;46.10;;;;;;5109794;27;20293;-62
2020/12/17 11:30:34;;;;;;;3.20;2.37;;;23.50;45.60;;;;;;5110097;27;20230;-62
2020/12/17 11:33:01;;;;;;;4.30;2.70;;;23.40;45.50;;;;;;5112944;27;20211;-61
2020/12/17 11:35:28;;;;;;;2.60;2.40;;;23.30;45.30;;;;;;5111158;27;20631;-61
2020/12/17 11:37:54;;;;;;;2.73;2.53;;;23.20;45.10;;;;;;5117183;27;20214;-59
2020/12/17 11:40:22;;;;;;;5.73;2.73;;;23.10;45.10;;;;;;5112324;27;20207;-60
2020/12/17 11:42:49;;;;;;;2.83;2.60;;;22.90;45.00;;;;;;5108597;27;20626;-59
2020/12/17 11:45:17;;;;;;;3.00;2.70;;;22.70;45.00;;;;;;5108781;27;20231;-60
2020/12/17 11:47:44;;;;;;;3.70;3.17;;;22.40;44.80;;;;;;5110226;27;20587;-61
2020/12/17 11:50:11;;;;;;;3.13;2.70;;;22.20;44.90;;;;;;5108549;27;20233;-61
2020/12/17 11:52:38;;;;;;;3.07;2.77;;;21.90;45.50;;;;;;5107294;27;20715;-59
2020/12/17 11:55:10;;;;;;;5.10;3.00;;;21.60;44.90;;;;;;5110937;27;20231;-61
2020/12/17 11:57:36;;;;;;;3.10;2.80;;;21.30;44.80;;;;;;5111476;27;20218;-62
2020/12/17 12:00:06;;;;;;;2.77;2.57;;;21.00;45.10;;;;;;5115138;27;20250;-62
2020/12/17 12:02:34;;;;;;;2.63;2.43;;;20.70;45.20;;;;;;5115971;27;20284;-63
2020/12/17 12:05:01;;;;;;;4.47;2.03;;;20.40;45.60;;;;;;5113215;27;20234;-62
2020/12/17 12:07:27;;;;;;;2.90;2.50;;;20.10;45.90;;;;;;5113493;27;20234;-63
2020/12/17 12:09:54;;;;;;;3.27;2.43;;;19.80;46.20;;;;;;5113297;27;20240;-62
2020/12/17 12:12:22;;;;;;;2.83;2.60;;;19.50;46.60;;;;;;5114301;28;20211;-63
2020/12/17 12:14:49;;;;;;;2.57;2.37;;;19.20;46.90;;;;;;5111855;28;20727;-62
2020/12/17 12:17:15;;;;;;;4.37;2.53;;;19.00;47.40;;;;;;5114063;28;20214;-61
2020/12/17 12:19:43;;;;;;;3.53;2.50;;;18.80;47.70;;;;;;5113876;28;20766;-62
2020/12/17 12:22:10;;;;;;;2.57;2.30;;;18.60;47.90;;;;;;5112863;28;20202;-62
2020/12/17 12:24:37;;;;;;;2.90;2.20;;;18.50;48.20;;;;;;5116383;28;20675;-62
2020/12/17 12:27:04;;;;;;;2.80;2.40;;;18.40;48.40;;;;;;5115029;28;20256;-61
2020/12/17 12:29:30;;;;;;;3.07;2.57;;;18.30;48.70;;;;;;5116266;22;20244;-65
2020/12/17 12:31:57;;;;;;;2.80;2.40;;;18.30;49.00;;;;;;5055585;28;20653;-62
2020/12/17 12:34:25;;;;;;;2.40;2.10;;;18.20;49.10;;;;;;5057472;28;20574;-64
2020/12/17 12:36:54;;;;;;;2.67;2.47;;;18.10;49.20;;;;;;5057280;28;20208;-63
2020/12/17 12:39:21;;;;;;;6.97;2.30;;;18.10;49.30;;;;;;5057757;28;20265;-64
2020/12/17 12:41:48;;;;;;;3.80;2.10;;;18.10;49.50;;;;;;5057633;28;20205;-64
2020/12/17 12:44:15;;;;;;;3.03;2.20;;;18.10;49.50;;;;;;5059778;28;20213;-62
2020/12/17 12:46:43;;;;;;;4.53;2.20;;;18.20;49.60;;;;;;5058847;28;20297;-65
2020/12/17 12:49:10;;;;;;;3.20;2.20;;;18.20;49.50;;;;;;5057274;28;20275;-61
2020/12/17 12:51:37;;;;;;;4.43;1.90;;;18.10;49.40;;;;;;5056826;28;20230;-64
2020/12/17 12:54:04;;;;;;;2.07;1.87;;;18.10;49.90;;;;;;5060587;28;20232;-63
2020/12/17 12:56:30;;;;;;;3.07;2.37;;;18.10;49.10;;;;;;5061761;28;20296;-65
2020/12/17 12:58:57;;;;;;;2.27;2.07;;;18.00;49.00;;;;;;5058871;28;20213;-63
2020/12/17 13:01:32;;;;;;;2.43;2.23;;;17.90;48.90;;;;;;5061450;28;20209;-62